sensor_id;sensor_type;location;lat;lon;timestamp;P1;durP1;ratioP1;P2;durP2;ratioP2
72584;SDS011;73873;40.084;32.908;2024-02-28T00:02:14;17.13;;;7.75;;
72584;SDS011;73873;40.084;32.908;2024-02-28T00:04:44;17.17;;;9.23;;
72584;SDS011;73873;40.084;32.908;2024-02-28T00:07:11;16.35;;;8.18;;
72584;SDS011;73873;40.084;32.908;2024-02-28T00:09:37;16.27;;;8.15;;
72584;SDS011;73873;40.084;32.908;2024-02-28T00:12:05;16.70;;;8.17;;
72584;SDS011;73873;40.084;32.908;2024-02-28T00:14:32;19.02;;;9.38;;
72584;SDS011;73873;40.084;32.908;2024-02-28T00:16:59;18.55;;;9.32;;
72584;SDS011;73873;40.084;32.908;2024-02-28T00:19:26;17.27;;;8.65;;
72584;SDS011;73873;40.084;32.908;2024-02-28T00:21:53;17.17;;;8.45;;
72584;SDS011;73873;40.084;32.908;2024-02-28T00:24:20;16.00;;;8.70;;
72584;SDS011;73873;40.084;32.908;2024-02-28T00:26:50;16.80;;;8.30;;
72584;SDS011;73873;40.084;32.908;2024-02-28T00:29:17;16.63;;;8.23;;
72584;SDS011;73873;40.084;32.908;2024-02-28T00:31:44;14.23;;;7.13;;
72584;SDS011;73873;40.084;32.908;2024-02-28T00:34:11;15.55;;;7.88;;
72584;SDS011;73873;40.084;32.908;2024-02-28T00:36:38;19.07;;;8.17;;
72584;SDS011;73873;40.084;32.908;2024-02-28T00:39:20;16.65;;;8.45;;
72584;SDS011;73873;40.084;32.908;2024-02-28T00:41:50;16.20;;;8.15;;
72584;SDS011;73873;40.084;32.908;2024-02-28T00:44:20;16.88;;;8.07;;
72584;SDS011;73873;40.084;32.908;2024-02-28T00:46:47;19.35;;;8.88;;
72584;SDS011;73873;40.084;32.908;2024-02-28T00:49:14;18.27;;;8.70;;
72584;SDS011;73873;40.084;32.908;2024-02-28T00:51:41;19.25;;;9.10;;
72584;SDS011;73873;40.084;32.908;2024-02-28T00:54:08;18.98;;;9.10;;
72584;SDS011;73873;40.084;32.908;2024-02-28T00:56:35;18.10;;;8.48;;
72584;SDS011;73873;40.084;32.908;2024-02-28T00:59:02;18.27;;;8.82;;
72584;SDS011;73873;40.084;32.908;2024-02-28T01:01:29;16.30;;;8.00;;
72584;SDS011;73873;40.084;32.908;2024-02-28T01:03:56;17.08;;;8.50;;
72584;SDS011;73873;40.084;32.908;2024-02-28T01:06:23;17.10;;;8.00;;
72584;SDS011;73873;40.084;32.908;2024-02-28T01:08:50;17.33;;;8.77;;
72584;SDS011;73873;40.084;32.908;2024-02-28T01:11:17;16.17;;;8.15;;
72584;SDS011;73873;40.084;32.908;2024-02-28T01:13:44;16.83;;;7.97;;
72584;SDS011;73873;40.084;32.908;2024-02-28T01:16:11;18.33;;;8.93;;
72584;SDS011;73873;40.084;32.908;2024-02-28T01:18:38;17.05;;;7.82;;
72584;SDS011;73873;40.084;32.908;2024-02-28T01:21:05;14.82;;;7.80;;
72584;SDS011;73873;40.084;32.908;2024-02-28T01:23:32;18.55;;;8.85;;
72584;SDS011;73873;40.084;32.908;2024-02-28T01:26:02;19.10;;;9.40;;
72584;SDS011;73873;40.084;32.908;2024-02-28T01:28:30;19.60;;;8.80;;
72584;SDS011;73873;40.084;32.908;2024-02-28T01:30:57;19.33;;;8.80;;
72584;SDS011;73873;40.084;32.908;2024-02-28T01:33:31;16.15;;;7.88;;
72584;SDS011;73873;40.084;32.908;2024-02-28T01:35:58;14.98;;;8.10;;
72584;SDS011;73873;40.084;32.908;2024-02-28T01:38:25;14.40;;;6.67;;
72584;SDS011;73873;40.084;32.908;2024-02-28T01:40:52;16.40;;;7.13;;
72584;SDS011;73873;40.084;32.908;2024-02-28T01:43:19;16.38;;;7.80;;
72584;SDS011;73873;40.084;32.908;2024-02-28T01:45:46;18.42;;;7.97;;
72584;SDS011;73873;40.084;32.908;2024-02-28T01:48:13;17.92;;;8.10;;
72584;SDS011;73873;40.084;32.908;2024-02-28T01:50:40;19.30;;;8.33;;
72584;SDS011;73873;40.084;32.908;2024-02-28T01:53:08;14.80;;;7.20;;
72584;SDS011;73873;40.084;32.908;2024-02-28T01:55:37;19.50;;;9.93;;
72584;SDS011;73873;40.084;32.908;2024-02-28T01:58:04;18.00;;;9.75;;
72584;SDS011;73873;40.084;32.908;2024-02-28T02:00:35;18.25;;;8.50;;
72584;SDS011;73873;40.084;32.908;2024-02-28T02:03:03;21.17;;;9.47;;
72584;SDS011;73873;40.084;32.908;2024-02-28T02:05:33;17.38;;;8.48;;
72584;SDS011;73873;40.084;32.908;2024-02-28T02:08:00;19.45;;;9.75;;
72584;SDS011;73873;40.084;32.908;2024-02-28T02:10:28;19.40;;;10.55;;
72584;SDS011;73873;40.084;32.908;2024-02-28T02:12:55;20.42;;;10.15;;
72584;SDS011;73873;40.084;32.908;2024-02-28T02:15:22;20.03;;;9.83;;
72584;SDS011;73873;40.084;32.908;2024-02-28T02:17:50;21.25;;;9.48;;
72584;SDS011;73873;40.084;32.908;2024-02-28T02:20:17;19.13;;;9.15;;
72584;SDS011;73873;40.084;32.908;2024-02-28T02:22:47;18.02;;;8.75;;
72584;SDS011;73873;40.084;32.908;2024-02-28T02:25:14;18.40;;;8.93;;
72584;SDS011;73873;40.084;32.908;2024-02-28T02:27:41;21.40;;;9.90;;
72584;SDS011;73873;40.084;32.908;2024-02-28T02:30:08;21.52;;;10.15;;
72584;SDS011;73873;40.084;32.908;2024-02-28T02:32:35;20.40;;;9.70;;
72584;SDS011;73873;40.084;32.908;2024-02-28T02:35:02;18.45;;;9.15;;
72584;SDS011;73873;40.084;32.908;2024-02-28T02:37:29;19.33;;;9.13;;
72584;SDS011;73873;40.084;32.908;2024-02-28T02:39:56;18.73;;;9.50;;
72584;SDS011;73873;40.084;32.908;2024-02-28T02:42:23;23.15;;;11.30;;
72584;SDS011;73873;40.084;32.908;2024-02-28T02:44:50;27.15;;;13.15;;
72584;SDS011;73873;40.084;32.908;2024-02-28T02:47:17;23.95;;;11.27;;
72584;SDS011;73873;40.084;32.908;2024-02-28T02:49:44;22.40;;;10.63;;
72584;SDS011;73873;40.084;32.908;2024-02-28T02:52:11;18.17;;;9.57;;
72584;SDS011;73873;40.084;32.908;2024-02-28T02:54:38;30.23;;;14.20;;
72584;SDS011;73873;40.084;32.908;2024-02-28T02:57:05;23.00;;;11.93;;
72584;SDS011;73873;40.084;32.908;2024-02-28T02:59:32;20.70;;;9.50;;
72584;SDS011;73873;40.084;32.908;2024-02-28T03:01:59;21.67;;;10.88;;
72584;SDS011;73873;40.084;32.908;2024-02-28T03:04:26;22.00;;;10.23;;
72584;SDS011;73873;40.084;32.908;2024-02-28T03:06:52;22.90;;;10.77;;
72584;SDS011;73873;40.084;32.908;2024-02-28T03:09:19;25.80;;;11.57;;
72584;SDS011;73873;40.084;32.908;2024-02-28T03:11:46;21.20;;;9.95;;
72584;SDS011;73873;40.084;32.908;2024-02-28T03:14:13;24.48;;;10.55;;
72584;SDS011;73873;40.084;32.908;2024-02-28T03:16:41;25.87;;;11.20;;
72584;SDS011;73873;40.084;32.908;2024-02-28T03:19:10;24.05;;;10.90;;
72584;SDS011;73873;40.084;32.908;2024-02-28T03:21:38;20.85;;;10.45;;
72584;SDS011;73873;40.084;32.908;2024-02-28T03:24:05;22.00;;;10.85;;
72584;SDS011;73873;40.084;32.908;2024-02-28T03:26:32;21.10;;;10.20;;
72584;SDS011;73873;40.084;32.908;2024-02-28T03:28:59;26.63;;;11.87;;
72584;SDS011;73873;40.084;32.908;2024-02-28T03:31:27;27.73;;;11.95;;
72584;SDS011;73873;40.084;32.908;2024-02-28T03:33:54;23.10;;;12.23;;
72584;SDS011;73873;40.084;32.908;2024-02-28T03:36:21;23.83;;;11.32;;
72584;SDS011;73873;40.084;32.908;2024-02-28T03:38:48;24.05;;;11.48;;
72584;SDS011;73873;40.084;32.908;2024-02-28T03:41:15;20.33;;;10.07;;
72584;SDS011;73873;40.084;32.908;2024-02-28T03:43:42;21.38;;;11.23;;
72584;SDS011;73873;40.084;32.908;2024-02-28T03:46:09;24.67;;;11.55;;
72584;SDS011;73873;40.084;32.908;2024-02-28T03:48:36;23.02;;;11.38;;
72584;SDS011;73873;40.084;32.908;2024-02-28T03:51:03;21.60;;;10.73;;
72584;SDS011;73873;40.084;32.908;2024-02-28T03:53:31;23.27;;;10.93;;
72584;SDS011;73873;40.084;32.908;2024-02-28T03:55:58;22.15;;;10.75;;
72584;SDS011;73873;40.084;32.908;2024-02-28T03:58:25;25.23;;;11.65;;
72584;SDS011;73873;40.084;32.908;2024-02-28T04:00:51;24.50;;;11.00;;
72584;SDS011;73873;40.084;32.908;2024-02-28T04:03:19;22.98;;;11.55;;
72584;SDS011;73873;40.084;32.908;2024-02-28T04:05:46;24.97;;;11.27;;
72584;SDS011;73873;40.084;32.908;2024-02-28T04:08:13;24.48;;;11.27;;
72584;SDS011;73873;40.084;32.908;2024-02-28T04:10:40;21.75;;;11.65;;
72584;SDS011;73873;40.084;32.908;2024-02-28T04:13:06;20.20;;;9.98;;
72584;SDS011;73873;40.084;32.908;2024-02-28T04:15:33;23.05;;;10.98;;
72584;SDS011;73873;40.084;32.908;2024-02-28T04:18:00;20.00;;;10.17;;
72584;SDS011;73873;40.084;32.908;2024-02-28T04:20:27;24.00;;;10.75;;
72584;SDS011;73873;40.084;32.908;2024-02-28T04:22:54;24.33;;;12.20;;
72584;SDS011;73873;40.084;32.908;2024-02-28T04:25:21;25.10;;;11.65;;
72584;SDS011;73873;40.084;32.908;2024-02-28T04:27:49;25.58;;;12.82;;
72584;SDS011;73873;40.084;32.908;2024-02-28T04:30:16;27.13;;;12.80;;
72584;SDS011;73873;40.084;32.908;2024-02-28T04:32:43;25.38;;;12.23;;
72584;SDS011;73873;40.084;32.908;2024-02-28T04:35:10;23.02;;;11.18;;
72584;SDS011;73873;40.084;32.908;2024-02-28T04:37:37;22.58;;;11.15;;
72584;SDS011;73873;40.084;32.908;2024-02-28T04:40:04;24.70;;;11.48;;
72584;SDS011;73873;40.084;32.908;2024-02-28T04:42:34;25.60;;;12.70;;
72584;SDS011;73873;40.084;32.908;2024-02-28T04:45:01;28.45;;;12.00;;
72584;SDS011;73873;40.084;32.908;2024-02-28T04:47:28;36.85;;;13.93;;
72584;SDS011;73873;40.084;32.908;2024-02-28T04:50:09;39.88;;;13.60;;
72584;SDS011;73873;40.084;32.908;2024-02-28T04:52:36;25.33;;;12.60;;
72584;SDS011;73873;40.084;32.908;2024-02-28T04:55:03;29.93;;;12.97;;
72584;SDS011;73873;40.084;32.908;2024-02-28T04:57:30;25.67;;;12.80;;
72584;SDS011;73873;40.084;32.908;2024-02-28T04:59:57;31.13;;;14.65;;
72584;SDS011;73873;40.084;32.908;2024-02-28T05:02:24;27.83;;;13.57;;
72584;SDS011;73873;40.084;32.908;2024-02-28T05:04:51;28.27;;;13.82;;
72584;SDS011;73873;40.084;32.908;2024-02-28T05:07:18;24.50;;;12.83;;
72584;SDS011;73873;40.084;32.908;2024-02-28T05:09:45;26.05;;;13.32;;
72584;SDS011;73873;40.084;32.908;2024-02-28T05:12:12;30.13;;;12.93;;
72584;SDS011;73873;40.084;32.908;2024-02-28T05:14:39;26.83;;;12.88;;
72584;SDS011;73873;40.084;32.908;2024-02-28T05:17:06;24.90;;;12.27;;
72584;SDS011;73873;40.084;32.908;2024-02-28T05:19:33;24.60;;;12.63;;
72584;SDS011;73873;40.084;32.908;2024-02-28T05:22:00;23.05;;;12.05;;
72584;SDS011;73873;40.084;32.908;2024-02-28T05:24:27;24.33;;;12.40;;
72584;SDS011;73873;40.084;32.908;2024-02-28T05:26:57;19.92;;;10.05;;
72584;SDS011;73873;40.084;32.908;2024-02-28T05:29:24;22.25;;;10.35;;
72584;SDS011;73873;40.084;32.908;2024-02-28T05:31:51;17.13;;;9.97;;
72584;SDS011;73873;40.084;32.908;2024-02-28T05:34:19;21.17;;;9.95;;
72584;SDS011;73873;40.084;32.908;2024-02-28T05:36:46;18.92;;;9.93;;
72584;SDS011;73873;40.084;32.908;2024-02-28T05:39:13;25.70;;;11.57;;
72584;SDS011;73873;40.084;32.908;2024-02-28T05:41:40;20.65;;;10.68;;
72584;SDS011;73873;40.084;32.908;2024-02-28T05:44:08;20.90;;;10.90;;
72584;SDS011;73873;40.084;32.908;2024-02-28T05:46:35;21.35;;;11.48;;
72584;SDS011;73873;40.084;32.908;2024-02-28T05:49:02;27.73;;;14.40;;
72584;SDS011;73873;40.084;32.908;2024-02-28T05:51:30;23.88;;;13.32;;
72584;SDS011;73873;40.084;32.908;2024-02-28T05:53:57;24.52;;;13.18;;
72584;SDS011;73873;40.084;32.908;2024-02-28T05:56:24;25.40;;;12.40;;
72584;SDS011;73873;40.084;32.908;2024-02-28T05:58:51;35.30;;;16.27;;
72584;SDS011;73873;40.084;32.908;2024-02-28T06:01:17;32.30;;;16.67;;
72584;SDS011;73873;40.084;32.908;2024-02-28T06:03:47;33.58;;;16.10;;
72584;SDS011;73873;40.084;32.908;2024-02-28T06:06:16;29.92;;;14.68;;
72584;SDS011;73873;40.084;32.908;2024-02-28T06:08:47;27.23;;;14.93;;
72584;SDS011;73873;40.084;32.908;2024-02-28T06:11:14;26.73;;;14.27;;
72584;SDS011;73873;40.084;32.908;2024-02-28T06:13:42;30.48;;;14.45;;
72584;SDS011;73873;40.084;32.908;2024-02-28T06:16:15;36.03;;;15.48;;
72584;SDS011;73873;40.084;32.908;2024-02-28T06:18:43;28.38;;;14.63;;
72584;SDS011;73873;40.084;32.908;2024-02-28T06:21:10;34.43;;;16.10;;
72584;SDS011;73873;40.084;32.908;2024-02-28T06:23:37;30.33;;;16.63;;
72584;SDS011;73873;40.084;32.908;2024-02-28T06:26:04;35.03;;;17.48;;
72584;SDS011;73873;40.084;32.908;2024-02-28T06:28:31;33.33;;;15.80;;
72584;SDS011;73873;40.084;32.908;2024-02-28T06:30:58;31.90;;;15.57;;
72584;SDS011;73873;40.084;32.908;2024-02-28T06:33:25;37.40;;;16.27;;
72584;SDS011;73873;40.084;32.908;2024-02-28T06:35:52;31.77;;;14.73;;
72584;SDS011;73873;40.084;32.908;2024-02-28T06:38:19;29.75;;;13.50;;
72584;SDS011;73873;40.084;32.908;2024-02-28T06:40:46;36.47;;;14.93;;
72584;SDS011;73873;40.084;32.908;2024-02-28T06:43:13;32.35;;;14.73;;
72584;SDS011;73873;40.084;32.908;2024-02-28T06:45:40;30.20;;;15.10;;
72584;SDS011;73873;40.084;32.908;2024-02-28T06:48:06;33.10;;;15.32;;
72584;SDS011;73873;40.084;32.908;2024-02-28T06:50:34;31.58;;;15.55;;
72584;SDS011;73873;40.084;32.908;2024-02-28T06:53:01;34.70;;;17.23;;
72584;SDS011;73873;40.084;32.908;2024-02-28T06:55:28;38.88;;;18.83;;
72584;SDS011;73873;40.084;32.908;2024-02-28T06:57:55;45.03;;;22.90;;
72584;SDS011;73873;40.084;32.908;2024-02-28T07:00:22;45.35;;;26.17;;
72584;SDS011;73873;40.084;32.908;2024-02-28T07:02:49;61.42;;;37.40;;
72584;SDS011;73873;40.084;32.908;2024-02-28T07:05:16;46.10;;;23.92;;
72584;SDS011;73873;40.084;32.908;2024-02-28T07:07:43;42.33;;;24.85;;
72584;SDS011;73873;40.084;32.908;2024-02-28T07:10:10;37.20;;;19.30;;
72584;SDS011;73873;40.084;32.908;2024-02-28T07:12:37;34.35;;;19.77;;
72584;SDS011;73873;40.084;32.908;2024-02-28T07:15:04;29.75;;;16.85;;
72584;SDS011;73873;40.084;32.908;2024-02-28T07:17:31;28.38;;;14.30;;
72584;SDS011;73873;40.084;32.908;2024-02-28T07:19:58;22.30;;;12.60;;
72584;SDS011;73873;40.084;32.908;2024-02-28T07:22:25;26.83;;;14.33;;
72584;SDS011;73873;40.084;32.908;2024-02-28T07:24:52;35.13;;;16.90;;
72584;SDS011;73873;40.084;32.908;2024-02-28T07:27:21;28.75;;;15.32;;
72584;SDS011;73873;40.084;32.908;2024-02-28T07:29:49;29.50;;;15.27;;
72584;SDS011;73873;40.084;32.908;2024-02-28T07:32:16;34.33;;;15.23;;
72584;SDS011;73873;40.084;32.908;2024-02-28T07:34:43;33.53;;;15.73;;
72584;SDS011;73873;40.084;32.908;2024-02-28T07:37:10;32.78;;;15.82;;
72584;SDS011;73873;40.084;32.908;2024-02-28T07:39:37;29.20;;;17.00;;
72584;SDS011;73873;40.084;32.908;2024-02-28T07:42:04;30.50;;;15.98;;
72584;SDS011;73873;40.084;32.908;2024-02-28T07:44:31;31.45;;;16.27;;
72584;SDS011;73873;40.084;32.908;2024-02-28T07:46:58;34.67;;;15.27;;
72584;SDS011;73873;40.084;32.908;2024-02-28T07:49:25;29.38;;;16.35;;
72584;SDS011;73873;40.084;32.908;2024-02-28T07:51:54;29.40;;;14.90;;
72584;SDS011;73873;40.084;32.908;2024-02-28T07:54:21;29.95;;;15.75;;
72584;SDS011;73873;40.084;32.908;2024-02-28T07:56:48;26.92;;;14.93;;
72584;SDS011;73873;40.084;32.908;2024-02-28T07:59:15;28.90;;;14.00;;
72584;SDS011;73873;40.084;32.908;2024-02-28T08:01:42;27.45;;;14.80;;
72584;SDS011;73873;40.084;32.908;2024-02-28T08:04:09;25.77;;;13.98;;
72584;SDS011;73873;40.084;32.908;2024-02-28T08:06:36;21.63;;;12.23;;
72584;SDS011;73873;40.084;32.908;2024-02-28T08:09:03;21.98;;;11.98;;
72584;SDS011;73873;40.084;32.908;2024-02-28T08:11:30;24.40;;;13.63;;
72584;SDS011;73873;40.084;32.908;2024-02-28T08:13:57;23.95;;;11.90;;
72584;SDS011;73873;40.084;32.908;2024-02-28T08:16:24;19.05;;;10.63;;
72584;SDS011;73873;40.084;32.908;2024-02-28T08:18:54;18.83;;;9.13;;
72584;SDS011;73873;40.084;32.908;2024-02-28T08:21:21;20.77;;;10.10;;
72584;SDS011;73873;40.084;32.908;2024-02-28T08:23:48;16.87;;;8.77;;
72584;SDS011;73873;40.084;32.908;2024-02-28T08:26:15;16.27;;;8.10;;
72584;SDS011;73873;40.084;32.908;2024-02-28T08:28:42;19.25;;;8.40;;
72584;SDS011;73873;40.084;32.908;2024-02-28T08:31:09;13.70;;;8.00;;
72584;SDS011;73873;40.084;32.908;2024-02-28T08:33:36;15.88;;;8.73;;
72584;SDS011;73873;40.084;32.908;2024-02-28T08:36:03;19.13;;;9.53;;
72584;SDS011;73873;40.084;32.908;2024-02-28T08:38:31;16.30;;;8.65;;
72584;SDS011;73873;40.084;32.908;2024-02-28T08:40:58;17.83;;;10.20;;
72584;SDS011;73873;40.084;32.908;2024-02-28T08:43:26;21.05;;;11.27;;
72584;SDS011;73873;40.084;32.908;2024-02-28T08:45:53;20.92;;;11.25;;
72584;SDS011;73873;40.084;32.908;2024-02-28T08:48:21;21.80;;;12.30;;
72584;SDS011;73873;40.084;32.908;2024-02-28T08:50:48;24.85;;;14.20;;
72584;SDS011;73873;40.084;32.908;2024-02-28T08:53:15;27.33;;;14.60;;
72584;SDS011;73873;40.084;32.908;2024-02-28T08:55:42;27.13;;;14.18;;
72584;SDS011;73873;40.084;32.908;2024-02-28T08:58:09;25.13;;;13.50;;
72584;SDS011;73873;40.084;32.908;2024-02-28T09:00:36;24.30;;;12.97;;
72584;SDS011;73873;40.084;32.908;2024-02-28T09:03:04;24.23;;;13.38;;
72584;SDS011;73873;40.084;32.908;2024-02-28T09:05:31;23.90;;;13.52;;
72584;SDS011;73873;40.084;32.908;2024-02-28T09:07:58;22.52;;;12.70;;
72584;SDS011;73873;40.084;32.908;2024-02-28T09:10:25;23.05;;;12.23;;
72584;SDS011;73873;40.084;32.908;2024-02-28T09:12:52;22.83;;;12.40;;
72584;SDS011;73873;40.084;32.908;2024-02-28T09:15:19;25.15;;;12.20;;
72584;SDS011;73873;40.084;32.908;2024-02-28T09:17:46;22.48;;;12.52;;
72584;SDS011;73873;40.084;32.908;2024-02-28T09:20:13;23.08;;;11.60;;
72584;SDS011;73873;40.084;32.908;2024-02-28T09:22:41;23.17;;;12.52;;
72584;SDS011;73873;40.084;32.908;2024-02-28T09:25:09;18.97;;;12.00;;
72584;SDS011;73873;40.084;32.908;2024-02-28T09:27:36;21.55;;;12.05;;
72584;SDS011;73873;40.084;32.908;2024-02-28T09:30:04;19.75;;;10.20;;
72584;SDS011;73873;40.084;32.908;2024-02-28T09:32:31;23.15;;;9.13;;
72584;SDS011;73873;40.084;32.908;2024-02-28T09:34:58;16.42;;;8.48;;
72584;SDS011;73873;40.084;32.908;2024-02-28T09:37:25;11.97;;;6.70;;
72584;SDS011;73873;40.084;32.908;2024-02-28T09:39:52;14.20;;;7.82;;
72584;SDS011;73873;40.084;32.908;2024-02-28T09:42:19;17.88;;;9.50;;
72584;SDS011;73873;40.084;32.908;2024-02-28T09:44:47;16.20;;;8.52;;
72584;SDS011;73873;40.084;32.908;2024-02-28T09:47:15;17.17;;;9.95;;
72584;SDS011;73873;40.084;32.908;2024-02-28T09:49:42;15.57;;;7.93;;
72584;SDS011;73873;40.084;32.908;2024-02-28T09:52:09;14.23;;;8.68;;
72584;SDS011;73873;40.084;32.908;2024-02-28T09:54:37;18.05;;;9.13;;
72584;SDS011;73873;40.084;32.908;2024-02-28T09:57:04;16.88;;;7.03;;
72584;SDS011;73873;40.084;32.908;2024-02-28T09:59:31;12.95;;;7.03;;
72584;SDS011;73873;40.084;32.908;2024-02-28T10:02:17;12.57;;;6.73;;
72584;SDS011;73873;40.084;32.908;2024-02-28T10:04:47;13.50;;;8.20;;
72584;SDS011;73873;40.084;32.908;2024-02-28T10:07:14;14.77;;;7.78;;
72584;SDS011;73873;40.084;32.908;2024-02-28T10:09:42;12.38;;;6.45;;
72584;SDS011;73873;40.084;32.908;2024-02-28T10:12:09;13.23;;;6.88;;
72584;SDS011;73873;40.084;32.908;2024-02-28T10:14:36;14.27;;;6.50;;
72584;SDS011;73873;40.084;32.908;2024-02-28T10:17:04;10.38;;;5.95;;
72584;SDS011;73873;40.084;32.908;2024-02-28T10:19:31;21.90;;;9.52;;
72584;SDS011;73873;40.084;32.908;2024-02-28T10:21:58;16.40;;;9.10;;
72584;SDS011;73873;40.084;32.908;2024-02-28T10:24:26;12.68;;;7.50;;
72584;SDS011;73873;40.084;32.908;2024-02-28T10:26:54;16.73;;;7.50;;
72584;SDS011;73873;40.084;32.908;2024-02-28T10:29:22;16.05;;;7.53;;
72584;SDS011;73873;40.084;32.908;2024-02-28T10:31:50;15.38;;;7.03;;
72584;SDS011;73873;40.084;32.908;2024-02-28T10:34:21;12.50;;;6.22;;
72584;SDS011;73873;40.084;32.908;2024-02-28T10:36:49;14.68;;;7.50;;
72584;SDS011;73873;40.084;32.908;2024-02-28T10:39:16;15.37;;;6.40;;
72584;SDS011;73873;40.084;32.908;2024-02-28T10:41:44;14.60;;;7.10;;
72584;SDS011;73873;40.084;32.908;2024-02-28T10:44:14;14.02;;;6.45;;
72584;SDS011;73873;40.084;32.908;2024-02-28T10:46:48;14.35;;;6.40;;
72584;SDS011;73873;40.084;32.908;2024-02-28T10:49:16;12.75;;;5.97;;
72584;SDS011;73873;40.084;32.908;2024-02-28T10:51:44;13.90;;;6.10;;
72584;SDS011;73873;40.084;32.908;2024-02-28T10:54:13;11.25;;;5.95;;
72584;SDS011;73873;40.084;32.908;2024-02-28T10:56:41;10.20;;;5.65;;
72584;SDS011;73873;40.084;32.908;2024-02-28T10:59:10;11.65;;;5.60;;
72584;SDS011;73873;40.084;32.908;2024-02-28T11:01:42;10.75;;;6.20;;
72584;SDS011;73873;40.084;32.908;2024-02-28T11:04:11;8.97;;;4.63;;
72584;SDS011;73873;40.084;32.908;2024-02-28T11:06:49;11.88;;;5.03;;
72584;SDS011;73873;40.084;32.908;2024-02-28T11:09:19;9.90;;;5.15;;
72584;SDS011;73873;40.084;32.908;2024-02-28T11:11:51;12.65;;;5.40;;
72584;SDS011;73873;40.084;32.908;2024-02-28T11:14:19;9.77;;;5.00;;
72584;SDS011;73873;40.084;32.908;2024-02-28T11:16:47;10.87;;;5.17;;
72584;SDS011;73873;40.084;32.908;2024-02-28T11:19:20;10.05;;;5.43;;
72584;SDS011;73873;40.084;32.908;2024-02-28T11:21:54;9.65;;;5.25;;
72584;SDS011;73873;40.084;32.908;2024-02-28T11:24:27;9.18;;;5.40;;
72584;SDS011;73873;40.084;32.908;2024-02-28T11:27:00;8.48;;;4.95;;
72584;SDS011;73873;40.084;32.908;2024-02-28T11:29:28;11.90;;;4.63;;
72584;SDS011;73873;40.084;32.908;2024-02-28T11:31:56;8.90;;;4.30;;
72584;SDS011;73873;40.084;32.908;2024-02-28T11:34:23;9.38;;;4.32;;
72584;SDS011;73873;40.084;32.908;2024-02-28T11:36:50;12.07;;;4.65;;
72584;SDS011;73873;40.084;32.908;2024-02-28T11:39:18;8.50;;;4.57;;
72584;SDS011;73873;40.084;32.908;2024-02-28T11:41:45;9.60;;;4.53;;
72584;SDS011;73873;40.084;32.908;2024-02-28T11:44:15;10.45;;;4.55;;
72584;SDS011;73873;40.084;32.908;2024-02-28T11:46:46;9.65;;;4.10;;
72584;SDS011;73873;40.084;32.908;2024-02-28T11:49:14;8.68;;;3.70;;
72584;SDS011;73873;40.084;32.908;2024-02-28T11:51:42;7.60;;;3.78;;
72584;SDS011;73873;40.084;32.908;2024-02-28T11:54:10;11.57;;;4.60;;
72584;SDS011;73873;40.084;32.908;2024-02-28T11:56:39;8.68;;;4.28;;
72584;SDS011;73873;40.084;32.908;2024-02-28T11:59:08;7.82;;;4.20;;
72584;SDS011;73873;40.084;32.908;2024-02-28T12:01:38;9.23;;;4.40;;
72584;SDS011;73873;40.084;32.908;2024-02-28T12:04:08;10.80;;;4.38;;
72584;SDS011;73873;40.084;32.908;2024-02-28T12:06:35;8.70;;;3.87;;
72584;SDS011;73873;40.084;32.908;2024-02-28T12:09:05;8.93;;;3.75;;
72584;SDS011;73873;40.084;32.908;2024-02-28T12:11:34;7.20;;;3.63;;
72584;SDS011;73873;40.084;32.908;2024-02-28T12:14:05;9.75;;;3.70;;
72584;SDS011;73873;40.084;32.908;2024-02-28T12:16:34;7.82;;;3.70;;
72584;SDS011;73873;40.084;32.908;2024-02-28T12:19:06;7.37;;;4.00;;
72584;SDS011;73873;40.084;32.908;2024-02-28T12:21:36;9.73;;;4.32;;
72584;SDS011;73873;40.084;32.908;2024-02-28T12:24:04;9.18;;;4.05;;
72584;SDS011;73873;40.084;32.908;2024-02-28T12:26:35;9.05;;;4.28;;
72584;SDS011;73873;40.084;32.908;2024-02-28T12:29:03;8.82;;;3.85;;
72584;SDS011;73873;40.084;32.908;2024-02-28T12:31:30;8.87;;;4.00;;
72584;SDS011;73873;40.084;32.908;2024-02-28T12:33:58;9.35;;;4.30;;
72584;SDS011;73873;40.084;32.908;2024-02-28T12:36:26;7.60;;;4.35;;
72584;SDS011;73873;40.084;32.908;2024-02-28T12:38:53;8.23;;;4.20;;
72584;SDS011;73873;40.084;32.908;2024-02-28T12:41:20;10.02;;;4.45;;
72584;SDS011;73873;40.084;32.908;2024-02-28T12:43:47;10.03;;;4.50;;
72584;SDS011;73873;40.084;32.908;2024-02-28T12:46:14;7.35;;;4.28;;
72584;SDS011;73873;40.084;32.908;2024-02-28T12:48:41;10.15;;;4.45;;
72584;SDS011;73873;40.084;32.908;2024-02-28T12:51:10;9.13;;;4.50;;
72584;SDS011;73873;40.084;32.908;2024-02-28T12:53:46;10.45;;;4.43;;
72584;SDS011;73873;40.084;32.908;2024-02-28T12:56:17;9.67;;;4.50;;
72584;SDS011;73873;40.084;32.908;2024-02-28T12:58:44;10.73;;;4.60;;
72584;SDS011;73873;40.084;32.908;2024-02-28T13:01:11;8.93;;;4.30;;
72584;SDS011;73873;40.084;32.908;2024-02-28T13:03:38;11.93;;;4.50;;
72584;SDS011;73873;40.084;32.908;2024-02-28T13:06:05;9.45;;;3.80;;
72584;SDS011;73873;40.084;32.908;2024-02-28T13:08:32;7.60;;;4.30;;
72584;SDS011;73873;40.084;32.908;2024-02-28T13:11:02;7.63;;;3.97;;
72584;SDS011;73873;40.084;32.908;2024-02-28T13:13:29;9.07;;;4.45;;
72584;SDS011;73873;40.084;32.908;2024-02-28T13:15:56;10.85;;;4.35;;
72584;SDS011;73873;40.084;32.908;2024-02-28T13:18:23;8.82;;;4.25;;
72584;SDS011;73873;40.084;32.908;2024-02-28T13:20:51;7.93;;;4.13;;
72584;SDS011;73873;40.084;32.908;2024-02-28T13:23:18;11.77;;;4.53;;
72584;SDS011;73873;40.084;32.908;2024-02-28T13:25:45;9.40;;;4.38;;
72584;SDS011;73873;40.084;32.908;2024-02-28T13:28:12;9.27;;;4.53;;
72584;SDS011;73873;40.084;32.908;2024-02-28T13:30:39;12.32;;;4.80;;
72584;SDS011;73873;40.084;32.908;2024-02-28T13:33:06;9.13;;;4.47;;
72584;SDS011;73873;40.084;32.908;2024-02-28T13:35:35;9.07;;;4.47;;
72584;SDS011;73873;40.084;32.908;2024-02-28T13:38:02;8.35;;;3.95;;
72584;SDS011;73873;40.084;32.908;2024-02-28T13:40:29;7.82;;;4.22;;
72584;SDS011;73873;40.084;32.908;2024-02-28T13:42:56;7.03;;;4.00;;
72584;SDS011;73873;40.084;32.908;2024-02-28T13:45:23;8.40;;;4.27;;
72584;SDS011;73873;40.084;32.908;2024-02-28T13:47:50;7.47;;;4.32;;
72584;SDS011;73873;40.084;32.908;2024-02-28T13:50:17;9.60;;;4.53;;
72584;SDS011;73873;40.084;32.908;2024-02-28T13:52:46;8.88;;;4.32;;
72584;SDS011;73873;40.084;32.908;2024-02-28T13:55:13;10.57;;;4.43;;
72584;SDS011;73873;40.084;32.908;2024-02-28T13:57:40;9.13;;;3.80;;
72584;SDS011;73873;40.084;32.908;2024-02-28T14:00:07;10.50;;;4.07;;
72584;SDS011;73873;40.084;32.908;2024-02-28T14:02:35;8.25;;;4.00;;
72584;SDS011;73873;40.084;32.908;2024-02-28T14:05:03;8.43;;;4.15;;
72584;SDS011;73873;40.084;32.908;2024-02-28T14:07:30;9.30;;;4.05;;
72584;SDS011;73873;40.084;32.908;2024-02-28T14:10:04;7.43;;;3.60;;
72584;SDS011;73873;40.084;32.908;2024-02-28T14:12:34;8.82;;;4.25;;
72584;SDS011;73873;40.084;32.908;2024-02-28T14:15:01;9.18;;;4.10;;
72584;SDS011;73873;40.084;32.908;2024-02-28T14:17:29;9.77;;;4.07;;
72584;SDS011;73873;40.084;32.908;2024-02-28T14:19:56;9.25;;;4.13;;
72584;SDS011;73873;40.084;32.908;2024-02-28T14:22:24;12.90;;;5.40;;